aviador You're here:

KTYS Decoded Metar

KNOXVILLE in TN, USA
Report Time2018-01-18 12:53:00
UTC Time2018-01-18 14:01:06
Flight Rules Old
WindCalm
Visibility9999 m
Phenomena:N/A
Clouds:N/A
Expected CloudBase > 1,200 ft AGL from Temp-Dew spread
CeilingNone
Temp-13°C (ISA -26)
Dew Point-16°C (78% RH)
AAT-16.4°C
QNH1033 hPa
Density Alt-2,936 ft
Elevation991 ft
Report Wrong Elevation
Raw Report
METAR KTYS 181253Z 00000KT 8SM CLR M13/M16 A3051 RMK AO2 SLP351 T11331156=

Extra information for KTYS:More info

Metar Taf Metar & Taf Last 4 Metars F.Rules Stats Wind Profile Meteogram Temp Stats Airport Information Weather charts Add Link Nearby VenuesMetar ALERT Operation Metar Decoded Social comments

AIRNAV info for KTYS